Terminal Aerodrome Forecast
Issued by NWS Portland, OR

Home | Current Version | Previous Version | Text Only | Print | Product List | Glossary On
Versions: 1 2 3 4 5 6 7 8 9 10 11 12 13 14 15 16 17 18 19 20 21 22 23 24 25 26 27 28 29 30 31
000
FTUS46 KPQR 202332
TAFAST
TAF
KAST 202332Z 2100/2124 24008G14KT P6SM VCSH SCT015 BKN050
     FM210600 16008KT P6SM -RA SCT020 OVC040
     FM211000 15012G20KT P6SM -RA BKN020
     FM211200 16016G25KT 5SM RA OVC015=

USA.gov is the U.S. government's official web portal to all federal, state and local government web resources and services.